sensor_id;sensor_type;location;lat;lon;timestamp;pressure;altitude;pressure_sealevel;temperature;humidity
65329;BME280;51941;52.210;5.158;2023-04-20T00:00:23;102435.06;;;19.01;52.94
65329;BME280;51941;52.210;5.158;2023-04-20T00:02:50;102434.91;;;18.91;53.03
65329;BME280;51941;52.210;5.158;2023-04-20T00:05:18;102428.72;;;18.90;53.04
65329;BME280;51941;52.210;5.158;2023-04-20T00:07:44;102421.19;;;18.87;53.27
65329;BME280;51941;52.210;5.158;2023-04-20T00:10:12;102422.72;;;18.83;53.13
65329;BME280;51941;52.210;5.158;2023-04-20T00:12:42;102417.59;;;18.82;52.93
65329;BME280;51941;52.210;5.158;2023-04-20T00:15:09;102420.53;;;18.80;52.60
65329;BME280;51941;52.210;5.158;2023-04-20T00:17:37;102415.16;;;18.80;52.33
65329;BME280;51941;52.210;5.158;2023-04-20T00:20:05;102404.13;;;18.77;51.95
65329;BME280;51941;52.210;5.158;2023-04-20T00:22:33;102397.63;;;18.73;51.90
65329;BME280;51941;52.210;5.158;2023-04-20T00:25:00;102386.84;;;18.68;51.87
65329;BME280;51941;52.210;5.158;2023-04-20T00:27:27;102389.75;;;18.66;51.99
65329;BME280;51941;52.210;5.158;2023-04-20T00:29:55;102384.88;;;18.63;51.97
65329;BME280;51941;52.210;5.158;2023-04-20T00:32:22;102340.78;;;18.37;51.59
65329;BME280;51941;52.210;5.158;2023-04-20T00:34:49;102378.47;;;18.64;51.77
65329;BME280;51941;52.210;5.158;2023-04-20T00:37:15;102379.50;;;18.63;51.61
65329;BME280;51941;52.210;5.158;2023-04-20T00:39:42;102369.13;;;18.67;51.58
65329;BME280;51941;52.210;5.158;2023-04-20T00:42:08;102357.75;;;18.60;51.40
65329;BME280;51941;52.210;5.158;2023-04-20T00:44:35;102364.75;;;18.61;51.23
65329;BME280;51941;52.210;5.158;2023-04-20T00:47:03;102352.88;;;18.57;51.21
65329;BME280;51941;52.210;5.158;2023-04-20T00:49:31;102339.66;;;18.50;51.21
65329;BME280;51941;52.210;5.158;2023-04-20T00:51:59;102352.63;;;18.58;51.04
65329;BME280;51941;52.210;5.158;2023-04-20T00:54:27;102342.63;;;18.53;51.00
65329;BME280;51941;52.210;5.158;2023-04-20T00:56:54;102239.25;;;17.86;50.74
65329;BME280;51941;52.210;5.158;2023-04-20T00:59:22;102243.38;;;17.93;50.58
65329;BME280;51941;52.210;5.158;2023-04-20T01:01:51;102330.22;;;18.47;50.56
65329;BME280;51941;52.210;5.158;2023-04-20T01:04:19;102328.94;;;18.50;50.39
65329;BME280;51941;52.210;5.158;2023-04-20T01:06:49;102316.22;;;18.45;50.41
65329;BME280;51941;52.210;5.158;2023-04-20T01:09:15;102318.44;;;18.48;50.48
65329;BME280;51941;52.210;5.158;2023-04-20T01:11:43;102318.34;;;18.43;50.32
65329;BME280;51941;52.210;5.158;2023-04-20T01:14:14;102312.72;;;18.45;50.61
65329;BME280;51941;52.210;5.158;2023-04-20T01:16:41;102297.88;;;18.37;50.37
65329;BME280;51941;52.210;5.158;2023-04-20T01:19:11;102303.31;;;18.42;50.31
65329;BME280;51941;52.210;5.158;2023-04-20T01:21:39;102298.50;;;18.44;50.36
65329;BME280;51941;52.210;5.158;2023-04-20T01:24:07;102285.22;;;18.33;50.28
65329;BME280;51941;52.210;5.158;2023-04-20T01:26:34;102289.09;;;18.42;50.21
65329;BME280;51941;52.210;5.158;2023-04-20T01:29:01;102284.66;;;18.47;50.00
65329;BME280;51941;52.210;5.158;2023-04-20T01:31:27;102275.63;;;18.37;49.81
65329;BME280;51941;52.210;5.158;2023-04-20T01:33:56;102275.06;;;18.35;50.04
65329;BME280;51941;52.210;5.158;2023-04-20T01:36:23;102277.91;;;18.28;49.81
65329;BME280;51941;52.210;5.158;2023-04-20T01:38:50;102274.13;;;18.24;50.52
65329;BME280;51941;52.210;5.158;2023-04-20T01:41:18;102272.88;;;18.32;50.03
65329;BME280;51941;52.210;5.158;2023-04-20T01:43:45;102262.97;;;18.32;50.07
65329;BME280;51941;52.210;5.158;2023-04-20T01:46:11;102252.97;;;18.28;50.00
65329;BME280;51941;52.210;5.158;2023-04-20T01:48:38;102253.22;;;18.26;50.24
65329;BME280;51941;52.210;5.158;2023-04-20T01:51:05;102251.28;;;18.22;50.02
65329;BME280;51941;52.210;5.158;2023-04-20T01:53:32;102242.38;;;18.16;50.41
65329;BME280;51941;52.210;5.158;2023-04-20T01:55:59;102261.78;;;18.23;50.22
65329;BME280;51941;52.210;5.158;2023-04-20T01:58:27;102248.38;;;18.23;50.28
65329;BME280;51941;52.210;5.158;2023-04-20T02:00:54;102249.66;;;18.21;50.36
65329;BME280;51941;52.210;5.158;2023-04-20T02:03:21;102243.81;;;18.24;50.34
65329;BME280;51941;52.210;5.158;2023-04-20T02:05:47;102240.09;;;18.25;50.00
65329;BME280;51941;52.210;5.158;2023-04-20T02:08:14;102098.06;;;17.31;49.93
65329;BME280;51941;52.210;5.158;2023-04-20T02:10:40;102184.44;;;17.93;50.24
65329;BME280;51941;52.210;5.158;2023-04-20T02:13:07;102224.47;;;18.22;50.18
65329;BME280;51941;52.210;5.158;2023-04-20T02:15:35;102227.66;;;18.18;50.28
65329;BME280;51941;52.210;5.158;2023-04-20T02:18:02;102217.22;;;18.17;50.55
65329;BME280;51941;52.210;5.158;2023-04-20T02:20:29;102217.22;;;18.17;50.51
65329;BME280;51941;52.210;5.158;2023-04-20T02:22:56;102214.81;;;18.21;50.18
65329;BME280;51941;52.210;5.158;2023-04-20T02:25:23;102214.00;;;18.20;49.93
65329;BME280;51941;52.210;5.158;2023-04-20T02:27:50;102207.84;;;18.20;49.78
65329;BME280;51941;52.210;5.158;2023-04-20T02:30:17;102201.13;;;18.17;49.69
65329;BME280;51941;52.210;5.158;2023-04-20T02:32:45;102187.06;;;18.10;49.88
65329;BME280;51941;52.210;5.158;2023-04-20T02:35:14;102193.81;;;18.12;50.03
65329;BME280;51941;52.210;5.158;2023-04-20T02:37:42;102186.25;;;18.09;50.10
65329;BME280;51941;52.210;5.158;2023-04-20T02:40:11;102184.47;;;18.15;49.84
65329;BME280;51941;52.210;5.158;2023-04-20T02:42:38;102180.66;;;18.11;49.74
65329;BME280;51941;52.210;5.158;2023-04-20T02:45:09;102170.19;;;18.09;49.78
65329;BME280;51941;52.210;5.158;2023-04-20T02:47:36;102171.56;;;18.12;49.93
65329;BME280;51941;52.210;5.158;2023-04-20T02:50:05;102161.22;;;17.99;50.18
65329;BME280;51941;52.210;5.158;2023-04-20T02:52:45;102158.53;;;17.99;50.42
65329;BME280;51941;52.210;5.158;2023-04-20T02:55:12;102161.47;;;17.97;50.36
65329;BME280;51941;52.210;5.158;2023-04-20T02:57:42;102154.16;;;17.93;50.87
65329;BME280;51941;52.210;5.158;2023-04-20T03:00:10;102149.13;;;17.96;50.76
65329;BME280;51941;52.210;5.158;2023-04-20T03:02:54;102133.47;;;17.88;50.63
65329;BME280;51941;52.210;5.158;2023-04-20T03:05:23;102140.94;;;17.86;50.42
65329;BME280;51941;52.210;5.158;2023-04-20T03:07:50;102143.19;;;17.94;50.75
65329;BME280;51941;52.210;5.158;2023-04-20T03:10:17;102144.25;;;17.93;50.36
65329;BME280;51941;52.210;5.158;2023-04-20T03:13:03;102135.97;;;17.95;50.60
65329;BME280;51941;52.210;5.158;2023-04-20T03:15:48;102130.63;;;17.95;50.18
65329;BME280;51941;52.210;5.158;2023-04-20T03:18:33;102132.44;;;17.89;50.55
65329;BME280;51941;52.210;5.158;2023-04-20T03:21:02;102071.47;;;17.58;50.60
65329;BME280;51941;52.210;5.158;2023-04-20T03:23:30;102121.00;;;17.77;50.72
65329;BME280;51941;52.210;5.158;2023-04-20T03:25:58;102120.00;;;17.83;50.73
65329;BME280;51941;52.210;5.158;2023-04-20T03:28:54;102121.47;;;17.91;50.50
65329;BME280;51941;52.210;5.158;2023-04-20T03:31:24;102108.22;;;17.84;50.50
65329;BME280;51941;52.210;5.158;2023-04-20T03:33:53;102118.78;;;17.91;50.45
65329;BME280;51941;52.210;5.158;2023-04-20T03:36:21;102113.34;;;17.86;50.65
65329;BME280;51941;52.210;5.158;2023-04-20T03:38:47;102113.59;;;17.84;50.47
65329;BME280;51941;52.210;5.158;2023-04-20T03:41:14;102117.84;;;17.80;50.90
65329;BME280;51941;52.210;5.158;2023-04-20T03:43:41;102109.72;;;17.75;50.93
65329;BME280;51941;52.210;5.158;2023-04-20T03:46:08;102056.69;;;17.38;51.05
65329;BME280;51941;52.210;5.158;2023-04-20T03:48:35;102118.13;;;17.84;50.67
65329;BME280;51941;52.210;5.158;2023-04-20T03:51:01;102115.16;;;17.80;50.92
65329;BME280;51941;52.210;5.158;2023-04-20T03:53:31;102113.59;;;17.84;51.05
65329;BME280;51941;52.210;5.158;2023-04-20T03:55:59;102110.91;;;17.84;50.92
65329;BME280;51941;52.210;5.158;2023-04-20T03:58:26;102103.19;;;17.88;50.72
65329;BME280;51941;52.210;5.158;2023-04-20T04:01:02;102101.53;;;17.82;51.04
65329;BME280;51941;52.210;5.158;2023-04-20T04:03:31;102099.91;;;17.81;50.92
65329;BME280;51941;52.210;5.158;2023-04-20T04:05:58;102101.56;;;17.87;50.66
65329;BME280;51941;52.210;5.158;2023-04-20T04:08:25;102092.97;;;17.85;50.58
65329;BME280;51941;52.210;5.158;2023-04-20T04:10:54;102081.19;;;17.86;50.62
65329;BME280;51941;52.210;5.158;2023-04-20T04:13:21;102084.94;;;17.85;50.74
65329;BME280;51941;52.210;5.158;2023-04-20T04:15:47;102083.06;;;17.85;50.72
65329;BME280;51941;52.210;5.158;2023-04-20T04:18:14;102071.50;;;17.79;50.83
65329;BME280;51941;52.210;5.158;2023-04-20T04:20:41;102068.00;;;17.79;51.05
65329;BME280;51941;52.210;5.158;2023-04-20T04:23:10;102066.88;;;17.75;51.32
65329;BME280;51941;52.210;5.158;2023-04-20T04:25:43;102062.69;;;17.84;50.82
65329;BME280;51941;52.210;5.158;2023-04-20T04:28:12;102059.97;;;17.79;51.21
65329;BME280;51941;52.210;5.158;2023-04-20T04:31:01;102053.22;;;17.76;50.88
65329;BME280;51941;52.210;5.158;2023-04-20T04:33:31;102057.78;;;17.76;51.02
65329;BME280;51941;52.210;5.158;2023-04-20T04:36:04;102054.38;;;17.81;50.75
65329;BME280;51941;52.210;5.158;2023-04-20T04:38:32;102047.88;;;17.76;50.77
65329;BME280;51941;52.210;5.158;2023-04-20T04:40:59;102048.63;;;17.72;50.92
65329;BME280;51941;52.210;5.158;2023-04-20T04:43:29;101939.88;;;16.89;51.24
65329;BME280;51941;52.210;5.158;2023-04-20T04:46:09;102048.63;;;17.72;51.12
65329;BME280;51941;52.210;5.158;2023-04-20T04:48:36;101938.22;;;17.04;50.94
65329;BME280;51941;52.210;5.158;2023-04-20T04:51:05;102034.44;;;17.71;50.67
65329;BME280;51941;52.210;5.158;2023-04-20T04:53:32;101944.22;;;17.12;50.90
65329;BME280;51941;52.210;5.158;2023-04-20T04:55:59;102036.59;;;17.74;50.90
65329;BME280;51941;52.210;5.158;2023-04-20T04:58:25;102036.88;;;17.73;50.56
65329;BME280;51941;52.210;5.158;2023-04-20T05:00:57;102028.94;;;17.61;50.97
65329;BME280;51941;52.210;5.158;2023-04-20T05:03:23;102041.34;;;17.67;50.60
65329;BME280;51941;52.210;5.158;2023-04-20T05:05:50;102041.28;;;17.62;51.20
65329;BME280;51941;52.210;5.158;2023-04-20T05:08:17;101945.81;;;17.13;51.03
65329;BME280;51941;52.210;5.158;2023-04-20T05:10:43;102033.00;;;17.64;50.81
65329;BME280;51941;52.210;5.158;2023-04-20T05:13:10;102034.69;;;17.53;51.97
65329;BME280;51941;52.210;5.158;2023-04-20T05:15:37;101958.16;;;17.14;51.94
65329;BME280;51941;52.210;5.158;2023-04-20T05:18:05;102031.38;;;17.63;51.38
65329;BME280;51941;52.210;5.158;2023-04-20T05:20:31;102039.72;;;17.66;51.24
65329;BME280;51941;52.210;5.158;2023-04-20T05:22:58;102037.34;;;17.70;51.30
65329;BME280;51941;52.210;5.158;2023-04-20T05:25:25;102041.13;;;17.74;51.09
65329;BME280;51941;52.210;5.158;2023-04-20T05:27:51;102028.84;;;17.73;51.31
65329;BME280;51941;52.210;5.158;2023-04-20T05:30:18;102031.25;;;17.74;51.24
65329;BME280;51941;52.210;5.158;2023-04-20T05:32:45;102042.75;;;17.75;51.83
65329;BME280;51941;52.210;5.158;2023-04-20T05:35:13;102038.78;;;17.77;52.01
65329;BME280;51941;52.210;5.158;2023-04-20T05:37:40;102042.28;;;17.78;52.44
65329;BME280;51941;52.210;5.158;2023-04-20T05:40:07;102043.22;;;17.89;52.28
65329;BME280;51941;52.210;5.158;2023-04-20T05:42:35;102036.72;;;17.85;52.38
65329;BME280;51941;52.210;5.158;2023-04-20T05:45:02;102037.84;;;17.89;52.57
65329;BME280;51941;52.210;5.158;2023-04-20T05:47:29;102032.88;;;17.97;52.80
65329;BME280;51941;52.210;5.158;2023-04-20T05:49:56;102050.56;;;17.98;52.12
65329;BME280;51941;52.210;5.158;2023-04-20T05:52:24;102055.84;;;17.93;51.98
65329;BME280;51941;52.210;5.158;2023-04-20T05:54:51;102054.03;;;17.77;52.57
65329;BME280;51941;52.210;5.158;2023-04-20T05:57:18;102048.19;;;17.80;52.29
65329;BME280;51941;52.210;5.158;2023-04-20T05:59:45;102038.91;;;17.88;52.62
65329;BME280;51941;52.210;5.158;2023-04-20T06:02:11;102037.25;;;17.82;52.32
65329;BME280;51941;52.210;5.158;2023-04-20T06:04:38;101953.75;;;17.24;52.41
65329;BME280;51941;52.210;5.158;2023-04-20T06:07:06;102039.16;;;17.86;52.56
65329;BME280;51941;52.210;5.158;2023-04-20T06:09:34;102032.38;;;17.78;52.77
65329;BME280;51941;52.210;5.158;2023-04-20T06:12:01;102034.00;;;17.79;52.76
65329;BME280;51941;52.210;5.158;2023-04-20T06:14:27;102039.66;;;17.83;52.42
65329;BME280;51941;52.210;5.158;2023-04-20T06:16:54;102027.25;;;17.77;52.88
65329;BME280;51941;52.210;5.158;2023-04-20T06:19:21;102028.06;;;17.77;52.65
65329;BME280;51941;52.210;5.158;2023-04-20T06:21:47;102015.16;;;17.74;52.33
65329;BME280;51941;52.210;5.158;2023-04-20T06:24:14;102033.69;;;17.76;52.89
65329;BME280;51941;52.210;5.158;2023-04-20T06:26:42;102028.03;;;17.72;53.27
65329;BME280;51941;52.210;5.158;2023-04-20T06:29:09;102025.34;;;17.72;53.62
65329;BME280;51941;52.210;5.158;2023-04-20T06:31:36;102013.19;;;17.65;53.80
65329;BME280;51941;52.210;5.158;2023-04-20T06:34:02;102015.75;;;17.76;53.04
65329;BME280;51941;52.210;5.158;2023-04-20T06:36:29;102008.75;;;17.75;53.32
65329;BME280;51941;52.210;5.158;2023-04-20T06:38:56;102009.66;;;17.81;52.77
65329;BME280;51941;52.210;5.158;2023-04-20T06:41:22;102006.16;;;17.81;52.93
65329;BME280;51941;52.210;5.158;2023-04-20T06:43:50;102011.19;;;17.77;52.40
65329;BME280;51941;52.210;5.158;2023-04-20T06:46:17;102005.84;;;17.77;52.58
65329;BME280;51941;52.210;5.158;2023-04-20T06:48:43;102016.66;;;17.65;53.49
65329;BME280;51941;52.210;5.158;2023-04-20T06:51:11;102009.78;;;17.53;53.74
65329;BME280;51941;52.210;5.158;2023-04-20T06:53:38;101964.66;;;17.39;53.37
65329;BME280;51941;52.210;5.158;2023-04-20T06:56:05;102015.44;;;17.73;53.32
65329;BME280;51941;52.210;5.158;2023-04-20T06:58:32;102010.88;;;17.73;53.53
65329;BME280;51941;52.210;5.158;2023-04-20T07:01:00;102020.03;;;17.77;53.31
65329;BME280;51941;52.210;5.158;2023-04-20T07:03:27;101952.84;;;17.35;53.01
65329;BME280;51941;52.210;5.158;2023-04-20T07:05:54;102020.81;;;18.00;52.88
65329;BME280;51941;52.210;5.158;2023-04-20T07:08:21;102026.25;;;18.05;52.95
65329;BME280;51941;52.210;5.158;2023-04-20T07:10:47;102020.66;;;18.06;52.71
65329;BME280;51941;52.210;5.158;2023-04-20T07:13:14;102025.25;;;18.11;52.62
65329;BME280;51941;52.210;5.158;2023-04-20T07:15:41;101860.16;;;17.08;52.92
65329;BME280;51941;52.210;5.158;2023-04-20T07:18:10;101919.72;;;17.41;53.27
65329;BME280;51941;52.210;5.158;2023-04-20T07:20:37;101984.97;;;17.79;53.29
65329;BME280;51941;52.210;5.158;2023-04-20T07:23:04;102023.81;;;18.03;53.38
65329;BME280;51941;52.210;5.158;2023-04-20T07:25:30;102010.66;;;18.02;53.34
65329;BME280;51941;52.210;5.158;2023-04-20T07:27:57;102014.41;;;18.01;52.85
65329;BME280;51941;52.210;5.158;2023-04-20T07:30:24;102008.81;;;18.02;53.04
65329;BME280;51941;52.210;5.158;2023-04-20T07:32:50;102020.31;;;18.03;53.23
65329;BME280;51941;52.210;5.158;2023-04-20T07:35:19;101922.81;;;17.33;53.30
65329;BME280;51941;52.210;5.158;2023-04-20T07:37:45;102030.69;;;17.94;53.31
65329;BME280;51941;52.210;5.158;2023-04-20T07:40:12;102031.81;;;17.98;53.46
65329;BME280;51941;52.210;5.158;2023-04-20T07:42:39;102023.81;;;18.03;53.28
65329;BME280;51941;52.210;5.158;2023-04-20T07:45:06;102022.50;;;18.06;53.21
65329;BME280;51941;52.210;5.158;2023-04-20T07:47:33;102020.94;;;18.10;52.62
65329;BME280;51941;52.210;5.158;2023-04-20T07:50:00;102009.94;;;18.06;57.58
65329;BME280;51941;52.210;5.158;2023-04-20T07:52:28;102018.47;;;18.03;61.00
65329;BME280;51941;52.210;5.158;2023-04-20T07:54:55;102027.41;;;18.14;57.37
65329;BME280;51941;52.210;5.158;2023-04-20T07:57:23;102037.13;;;18.20;57.69
65329;BME280;51941;52.210;5.158;2023-04-20T07:59:50;102017.81;;;18.18;55.66
65329;BME280;51941;52.210;5.158;2023-04-20T08:02:17;102030.22;;;18.24;55.22
65329;BME280;51941;52.210;5.158;2023-04-20T08:04:43;102043.88;;;18.23;55.27
65329;BME280;51941;52.210;5.158;2023-04-20T08:07:10;102022.19;;;18.24;54.97
65329;BME280;51941;52.210;5.158;2023-04-20T08:09:38;101961.38;;;18.03;55.03
65329;BME280;51941;52.210;5.158;2023-04-20T08:12:05;102009.22;;;18.43;54.83
65329;BME280;51941;52.210;5.158;2023-04-20T08:14:32;102001.66;;;18.35;54.87
65329;BME280;51941;52.210;5.158;2023-04-20T08:16:59;102004.03;;;18.36;55.01
65329;BME280;51941;52.210;5.158;2023-04-20T08:19:25;102001.44;;;18.41;54.65
65329;BME280;51941;52.210;5.158;2023-04-20T08:21:52;102001.44;;;18.41;54.62
65329;BME280;51941;52.210;5.158;2023-04-20T08:24:18;102000.06;;;18.39;54.64
65329;BME280;51941;52.210;5.158;2023-04-20T08:26:46;101982.13;;;18.44;54.63
65329;BME280;51941;52.210;5.158;2023-04-20T08:29:13;101993.63;;;18.40;54.75
65329;BME280;51941;52.210;5.158;2023-04-20T08:31:40;101992.81;;;18.39;54.70
65329;BME280;51941;52.210;5.158;2023-04-20T08:34:07;101989.91;;;18.41;54.97
65329;BME280;51941;52.210;5.158;2023-04-20T08:36:33;101980.47;;;18.38;54.94
65329;BME280;51941;52.210;5.158;2023-04-20T08:39:05;101988.03;;;18.41;55.05
65329;BME280;51941;52.210;5.158;2023-04-20T08:41:33;101994.56;;;18.50;54.70
65329;BME280;51941;52.210;5.158;2023-04-20T08:44:01;101994.22;;;18.47;54.96
65329;BME280;51941;52.210;5.158;2023-04-20T08:46:28;101991.31;;;18.48;54.92
65329;BME280;51941;52.210;5.158;2023-04-20T08:48:56;101997.75;;;18.47;54.78
65329;BME280;51941;52.210;5.158;2023-04-20T08:51:26;101991.31;;;18.48;54.74
65329;BME280;51941;52.210;5.158;2023-04-20T08:53:54;101995.25;;;18.41;54.40
65329;BME280;51941;52.210;5.158;2023-04-20T08:56:32;101977.81;;;18.38;54.25
65329;BME280;51941;52.210;5.158;2023-04-20T08:59:01;101984.78;;;18.39;54.24
65329;BME280;51941;52.210;5.158;2023-04-20T09:01:30;101979.38;;;18.34;56.28
65329;BME280;51941;52.210;5.158;2023-04-20T09:03:59;101982.81;;;18.30;55.63
65329;BME280;51941;52.210;5.158;2023-04-20T09:06:26;101977.94;;;18.27;55.99
65329;BME280;51941;52.210;5.158;2023-04-20T09:08:53;101969.53;;;18.45;54.83
65329;BME280;51941;52.210;5.158;2023-04-20T09:11:21;101969.25;;;18.41;55.31
65329;BME280;51941;52.210;5.158;2023-04-20T09:13:56;101960.66;;;18.39;55.74
65329;BME280;51941;52.210;5.158;2023-04-20T09:16:25;101973.63;;;18.47;55.30
65329;BME280;51941;52.210;5.158;2023-04-20T09:18:52;101968.25;;;18.47;55.26
65329;BME280;51941;52.210;5.158;2023-04-20T09:21:20;101964.19;;;18.45;55.21
65329;BME280;51941;52.210;5.158;2023-04-20T09:23:57;101954.59;;;18.49;54.68
65329;BME280;51941;52.210;5.158;2023-04-20T09:26:24;101944.59;;;18.44;54.74
65329;BME280;51941;52.210;5.158;2023-04-20T09:28:51;101966.81;;;18.40;54.41
65329;BME280;51941;52.210;5.158;2023-04-20T09:31:18;101969.50;;;18.40;54.24
65329;BME280;51941;52.210;5.158;2023-04-20T09:33:56;101970.25;;;18.62;53.64
65329;BME280;51941;52.210;5.158;2023-04-20T09:36:23;101966.84;;;18.45;54.44
65329;BME280;51941;52.210;5.158;2023-04-20T09:39:00;101956.91;;;18.40;54.87
65329;BME280;51941;52.210;5.158;2023-04-20T09:41:28;101940.78;;;18.35;55.14
65329;BME280;51941;52.210;5.158;2023-04-20T09:43:56;101953.66;;;18.33;55.37
65329;BME280;51941;52.210;5.158;2023-04-20T09:46:24;101946.94;;;18.36;55.22
65329;BME280;51941;52.210;5.158;2023-04-20T09:48:55;101941.88;;;18.39;55.25
65329;BME280;51941;52.210;5.158;2023-04-20T09:51:24;101950.50;;;18.41;55.16
65329;BME280;51941;52.210;5.158;2023-04-20T09:53:52;101886.69;;;18.06;55.08
65329;BME280;51941;52.210;5.158;2023-04-20T09:56:20;101938.50;;;18.49;53.84
65329;BME280;51941;52.210;5.158;2023-04-20T09:58:48;101939.31;;;18.49;54.36
65329;BME280;51941;52.210;5.158;2023-04-20T10:01:15;101938.19;;;18.45;54.35
65329;BME280;51941;52.210;5.158;2023-04-20T10:03:42;101937.09;;;18.41;54.38
65329;BME280;51941;52.210;5.158;2023-04-20T10:06:19;101941.59;;;18.36;55.39
65329;BME280;51941;52.210;5.158;2023-04-20T10:08:45;101933.53;;;18.36;55.07
65329;BME280;51941;52.210;5.158;2023-04-20T10:11:24;101927.94;;;18.37;55.32
65329;BME280;51941;52.210;5.158;2023-04-20T10:13:50;101913.22;;;18.40;54.84
65329;BME280;51941;52.210;5.158;2023-04-20T10:16:17;101919.13;;;18.42;54.87
65329;BME280;51941;52.210;5.158;2023-04-20T10:18:55;101919.63;;;18.39;55.08
65329;BME280;51941;52.210;5.158;2023-04-20T10:21:23;101919.03;;;18.32;55.34
65329;BME280;51941;52.210;5.158;2023-04-20T10:23:50;101901.91;;;18.33;55.40
65329;BME280;51941;52.210;5.158;2023-04-20T10:26:18;101910.94;;;18.27;55.28
65329;BME280;51941;52.210;5.158;2023-04-20T10:28:45;101889.00;;;18.30;54.86
65329;BME280;51941;52.210;5.158;2023-04-20T10:31:12;101811.19;;;17.83;54.91
65329;BME280;51941;52.210;5.158;2023-04-20T10:33:51;101889.66;;;18.42;54.51
65329;BME280;51941;52.210;5.158;2023-04-20T10:36:26;101899.50;;;18.36;54.92
65329;BME280;51941;52.210;5.158;2023-04-20T10:38:54;101912.91;;;18.36;54.94
65329;BME280;51941;52.210;5.158;2023-04-20T10:41:21;101899.25;;;18.38;54.65
65329;BME280;51941;52.210;5.158;2023-04-20T10:43:47;101899.38;;;18.48;53.73
65329;BME280;51941;52.210;5.158;2023-04-20T10:46:19;101877.16;;;18.52;52.89
65329;BME280;51941;52.210;5.158;2023-04-20T10:48:54;101890.50;;;18.47;54.09
65329;BME280;51941;52.210;5.158;2023-04-20T10:51:21;101889.09;;;18.40;54.38
65329;BME280;51941;52.210;5.158;2023-04-20T10:53:59;101903.31;;;18.40;54.54
65329;BME280;51941;52.210;5.158;2023-04-20T10:56:26;101905.16;;;18.40;54.32
65329;BME280;51941;52.210;5.158;2023-04-20T10:58:52;101899.00;;;18.39;54.17
65329;BME280;51941;52.210;5.158;2023-04-20T11:01:20;101898.75;;;18.41;54.20
65329;BME280;51941;52.210;5.158;2023-04-20T11:03:49;101890.13;;;18.34;54.46
65329;BME280;51941;52.210;5.158;2023-04-20T11:06:16;101717.53;;;17.29;54.47
65329;BME280;51941;52.210;5.158;2023-04-20T11:08:44;101887.72;;;18.37;54.57
65329;BME280;51941;52.210;5.158;2023-04-20T11:11:18;101861.69;;;18.33;54.44
65329;BME280;51941;52.210;5.158;2023-04-20T11:13:46;101875.13;;;18.38;54.39
65329;BME280;51941;52.210;5.158;2023-04-20T11:16:14;101877.22;;;18.31;54.92
65329;BME280;51941;52.210;5.158;2023-04-20T11:18:48;101884.03;;;18.43;53.90
65329;BME280;51941;52.210;5.158;2023-04-20T11:21:16;101870.88;;;18.42;53.57
65329;BME280;51941;52.210;5.158;2023-04-20T11:23:43;101874.56;;;18.36;54.54
65329;BME280;51941;52.210;5.158;2023-04-20T11:26:10;101870.56;;;18.33;54.70
65329;BME280;51941;52.210;5.158;2023-04-20T11:28:49;101823.19;;;18.07;54.58
65329;BME280;51941;52.210;5.158;2023-04-20T11:31:17;101850.16;;;18.32;54.66
65329;BME280;51941;52.210;5.158;2023-04-20T11:33:43;101849.59;;;18.30;54.75
65329;BME280;51941;52.210;5.158;2023-04-20T11:36:17;101844.88;;;18.42;54.01
65329;BME280;51941;52.210;5.158;2023-04-20T11:38:44;101841.09;;;18.38;54.35
65329;BME280;51941;52.210;5.158;2023-04-20T11:41:11;101833.03;;;18.33;54.70
65329;BME280;51941;52.210;5.158;2023-04-20T11:43:39;101836.50;;;18.34;54.71
65329;BME280;51941;52.210;5.158;2023-04-20T11:46:14;101834.09;;;18.37;54.55
65329;BME280;51941;52.210;5.158;2023-04-20T11:48:42;101828.25;;;18.40;53.81
65329;BME280;51941;52.210;5.158;2023-04-20T11:51:09;101837.81;;;18.31;54.77
65329;BME280;51941;52.210;5.158;2023-04-20T11:53:35;101811.94;;;18.10;54.89
65329;BME280;51941;52.210;5.158;2023-04-20T11:56:03;101841.81;;;18.29;54.70
65329;BME280;51941;52.210;5.158;2023-04-20T11:58:30;101836.53;;;18.39;53.60
65329;BME280;51941;52.210;5.158;2023-04-20T12:00:58;101843.69;;;18.28;54.53
65329;BME280;51941;52.210;5.158;2023-04-20T12:03:25;101674.97;;;17.27;54.81
65329;BME280;51941;52.210;5.158;2023-04-20T12:05:52;101802.59;;;18.12;54.47
65329;BME280;51941;52.210;5.158;2023-04-20T12:08:19;101839.69;;;18.26;54.88
65329;BME280;51941;52.210;5.158;2023-04-20T12:10:45;101839.69;;;18.31;53.83
65329;BME280;51941;52.210;5.158;2023-04-20T12:13:12;101836.38;;;18.18;53.95
65329;BME280;51941;52.210;5.158;2023-04-20T12:15:39;101825.56;;;18.40;53.30
65329;BME280;51941;52.210;5.158;2023-04-20T12:18:07;101839.06;;;18.50;53.18
65329;BME280;51941;52.210;5.158;2023-04-20T12:20:35;101823.78;;;18.51;52.97
65329;BME280;51941;52.210;5.158;2023-04-20T12:23:01;101835.66;;;18.65;53.05
65329;BME280;51941;52.210;5.158;2023-04-20T12:25:28;101824.13;;;18.65;53.31
65329;BME280;51941;52.210;5.158;2023-04-20T12:27:55;101733.97;;;18.06;52.94
65329;BME280;51941;52.210;5.158;2023-04-20T12:30:22;101822.53;;;18.69;52.90
65329;BME280;51941;52.210;5.158;2023-04-20T12:32:49;101824.69;;;18.72;52.64
65329;BME280;51941;52.210;5.158;2023-04-20T12:35:17;101655.19;;;17.60;52.72
65329;BME280;51941;52.210;5.158;2023-04-20T12:37:45;101771.38;;;18.38;52.64
65329;BME280;51941;52.210;5.158;2023-04-20T12:40:12;101748.56;;;18.26;52.58
65329;BME280;51941;52.210;5.158;2023-04-20T12:42:39;101821.47;;;18.70;52.63
65329;BME280;51941;52.210;5.158;2023-04-20T12:45:06;101826.84;;;18.70;52.67
65329;BME280;51941;52.210;5.158;2023-04-20T12:47:33;101820.63;;;18.59;52.99
65329;BME280;51941;52.210;5.158;2023-04-20T12:50:00;101824.03;;;18.49;53.27
65329;BME280;51941;52.210;5.158;2023-04-20T12:52:28;101818.19;;;18.58;53.17
65329;BME280;51941;52.210;5.158;2023-04-20T12:54:55;101795.00;;;18.41;53.28